Terminal Aerodrome Forecast
Issued by NWS

Home | Current Version | Previous Version | Text Only | Print | Product List | Glossary Off
Versions: 1 2 3 4 5 6 7 8 9 10 11 12 13 14 15 16 17 18 19 20 21 22 23 24 25 26 27 28 29 30 31 32 33 34
727 FTUS41 KBOX 292048 AAA TAFBED TAF AMD KBED 292048Z 2921/3018 11009KT P6SM FEW045 SCT160 SCT250 FM300000 12008KT P6SM BKN150 FM300400 17004KT P6SM BKN130 FM301200 VRB03KT P6SM FEW110=

USA.gov is the U.S. government's official web portal to all federal, state and local government web resources and services.